Time;durP1;ratioP1;P1;durP2;ratioP2;P2;SDS_P1;SDS_P2;PMS_P1;PMS_P2;Temp;Humidity;BMP_temperature;BMP_pressure;BME280_temperature;BME280_humidity;BME280_pressure;Samples;Min_cycle;Max_cycle;Signal;HPM_P1;HPM_P2
2021/05/05 00:00:33;;;;;;;0.28;0.28;;;;;;;7.16;84.71;95356.41;5074181;28;20049;-74
2021/05/05 00:03:00;;;;;;;0.22;0.20;;;;;;;7.08;84.29;95352.31;5074817;28;20041;-74
2021/05/05 00:05:26;;;;;;;0.28;0.28;;;;;;;7.02;84.56;95361.81;5074615;28;20047;-74
2021/05/05 00:07:53;;;;;;;0.70;0.30;;;;;;;6.99;84.45;95374.47;5074700;28;20037;-75
2021/05/05 00:10:19;;;;;;;0.30;0.30;;;;;;;6.89;84.20;95383.63;5073193;28;20059;-75
2021/05/05 00:12:46;;;;;;;0.17;0.17;;;;;;;6.88;84.62;95387.25;5074131;28;20036;-76
2021/05/05 00:15:19;;;;;;;0.20;0.20;;;;;;;6.87;84.13;95396.09;5074233;28;20033;-75
2021/05/05 00:17:45;;;;;;;0.10;0.10;;;;;;;6.84;84.12;95396.53;5074698;28;20047;-75
2021/05/05 00:20:13;;;;;;;0.32;0.32;;;;;;;6.83;84.28;95402.75;5074814;28;20037;-74
2021/05/05 00:22:40;;;;;;;0.20;0.20;;;;;;;6.81;83.88;95396.19;5073876;28;20052;-74
2021/05/05 00:25:07;;;;;;;0.20;0.20;;;;;;;6.75;83.66;95400.44;5074406;28;20031;-74
2021/05/05 00:27:34;;;;;;;0.93;0.32;;;;;;;6.64;83.61;95396.78;5074525;28;20028;-74
2021/05/05 00:30:09;;;;;;;0.28;0.20;;;;;;;6.58;83.70;95384.63;5073228;28;20063;-74
2021/05/05 00:32:36;;;;;;;0.13;0.13;;;;;;;6.49;83.83;95399.75;5074240;28;20036;-74
2021/05/05 00:35:03;;;;;;;0.28;0.20;;;;;;;6.45;83.47;95382.19;5074260;28;20036;-74
2021/05/05 00:37:30;;;;;;;0.10;0.10;;;;;;;6.43;83.67;95382.38;5074074;28;20043;-75
2021/05/05 00:39:56;;;;;;;0.30;0.20;;;;;;;6.37;83.45;95377.25;5073550;28;20416;-75
2021/05/05 00:42:23;;;;;;;0.20;0.20;;;;;;;6.35;83.61;95371.47;5073683;28;20457;-76
2021/05/05 00:44:55;;;;;;;0.43;0.20;;;;;;;6.34;83.52;95364.66;5074239;28;20047;-75
2021/05/05 00:47:23;;;;;;;0.20;0.20;;;;;;;6.32;83.32;95377.09;5073909;28;20044;-75
2021/05/05 00:49:49;;;;;;;0.10;0.10;;;;;;;6.30;83.23;95359.13;5074153;28;20424;-75
2021/05/05 00:52:15;;;;;;;0.10;0.10;;;;;;;6.35;84.13;95342.84;5056029;28;20492;-76
2021/05/05 00:54:41;;;;;;;0.30;0.28;;;;;;;6.39;83.92;95341.38;5072330;28;20032;-76
2021/05/05 00:57:08;;;;;;;0.10;0.10;;;;;;;6.49;84.30;95342.47;5073590;28;20041;-76
2021/05/05 00:59:34;;;;;;;0.10;0.10;;;;;;;6.55;83.81;95329.56;5073642;28;20399;-76
2021/05/05 01:02:01;;;;;;;0.10;0.10;;;;;;;6.57;83.81;95332.75;5073591;28;20052;-75
2021/05/05 01:04:27;;;;;;;0.30;0.25;;;;;;;6.64;84.18;95325.66;5072333;28;20382;-76
2021/05/05 01:06:54;;;;;;;0.40;0.20;;;;;;;6.67;83.60;95325.19;5073844;28;20040;-76
2021/05/05 01:09:21;;;;;;;0.50;0.20;;;;;;;6.69;83.60;95325.78;5071617;28;20051;-76
2021/05/05 01:11:47;;;;;;;0.30;0.20;;;;;;;6.76;83.70;95334.31;5073243;28;20044;-76
2021/05/05 01:14:16;;;;;;;0.38;0.25;;;;;;;6.79;83.31;95333.06;5073440;28;20107;-76
2021/05/05 01:16:42;;;;;;;0.13;0.10;;;;;;;6.79;82.97;95335.69;5073280;28;20043;-76
2021/05/05 01:19:08;;;;;;;0.20;0.20;;;;;;;6.79;83.00;95335.69;5073527;28;20048;-76
2021/05/05 01:21:34;;;;;;;0.15;0.10;;;;;;;6.78;82.65;95328.88;5072281;28;20382;-75
2021/05/05 01:24:04;;;;;;;0.20;0.20;;;;;;;6.80;82.76;95334.66;5073136;28;20040;-75
2021/05/05 01:26:30;;;;;;;0.57;0.35;;;;;;;6.78;82.50;95342.69;5074215;28;20033;-75
2021/05/05 01:29:00;;;;;;;0.20;0.20;;;;;;;6.77;82.26;95337.72;5073121;28;20041;-74
2021/05/05 01:31:27;;;;;;;0.28;0.28;;;;;;;6.73;82.20;95337.34;5073687;28;20055;-75
2021/05/05 01:33:55;;;;;;;0.32;0.22;;;;;;;6.72;82.63;95338.38;5073279;28;20044;-75
2021/05/05 01:36:23;;;;;;;0.25;0.25;;;;;;;6.73;82.59;95334.75;5073048;28;20412;-75
2021/05/05 01:38:50;;;;;;;0.15;0.15;;;;;;;6.74;82.28;95332.91;5073278;28;20039;-75
2021/05/05 01:41:18;;;;;;;0.73;0.50;;;;;;;6.70;82.31;95327.38;5074380;28;20036;-74
2021/05/05 01:43:44;;;;;;;0.40;0.40;;;;;;;6.69;82.36;95321.34;5077152;28;20043;-74
2021/05/05 01:46:11;;;;;;;0.25;0.25;;;;;;;6.67;82.20;95317.38;5077015;28;20110;-75
2021/05/05 01:48:37;;;;;;;0.20;0.20;;;;;;;6.69;82.35;95320.56;5077525;28;20047;-74
2021/05/05 01:51:04;;;;;;;1.30;0.20;;;;;;;6.73;82.38;95331.34;5076661;28;20032;-75
2021/05/05 01:53:30;;;;;;;0.43;0.35;;;;;;;6.74;82.42;95312.06;5077624;28;20032;-75
2021/05/05 01:55:56;;;;;;;0.30;0.20;;;;;;;6.76;82.06;95323.06;5076916;28;20041;-75
2021/05/05 01:58:25;;;;;;;0.10;0.10;;;;;;;6.76;82.45;95333.50;5076537;28;20394;-75
2021/05/05 02:00:51;;;;;;;0.65;0.30;;;;;;;6.77;82.03;95325.47;5076654;28;20131;-76
2021/05/05 02:03:18;;;;;;;0.93;0.10;;;;;;;6.78;81.98;95306.19;5075877;28;20044;-75
2021/05/05 02:05:44;;;;;;;0.50;0.32;;;;;;;6.78;82.04;95303.59;5075491;28;20029;-75
2021/05/05 02:08:10;;;;;;;1.02;0.30;;;;;;;6.76;81.87;95312.66;5077295;28;20473;-75
2021/05/05 02:10:36;;;;;;;0.20;0.20;;;;;;;6.76;82.18;95308.25;5076825;28;20032;-75
2021/05/05 02:13:03;;;;;;;0.70;0.32;;;;;;;6.76;81.82;95310.88;5077325;28;20045;-76
2021/05/05 02:15:29;;;;;;;0.30;0.30;;;;;;;6.74;82.00;95315.50;5076759;28;20036;-76
2021/05/05 02:17:55;;;;;;;0.32;0.32;;;;;;;6.75;81.76;95314.47;5076374;28;20032;-75
2021/05/05 02:20:24;;;;;;;0.63;0.30;;;;;;;6.76;81.90;95317.88;5077052;28;20056;-76
2021/05/05 02:22:50;;;;;;;0.30;0.30;;;;;;;6.76;82.08;95320.47;5076603;28;20088;-75
2021/05/05 02:25:17;;;;;;;0.50;0.30;;;;;;;6.75;81.87;95316.28;5076650;28;20036;-75
2021/05/05 02:27:45;;;;;;;0.30;0.30;;;;;;;6.69;81.22;95313.53;5076622;28;20044;-75
2021/05/05 02:30:13;;;;;;;0.45;0.38;;;;;;;6.59;81.44;95328.09;5076010;28;20057;-76
2021/05/05 02:32:41;;;;;;;0.35;0.20;;;;;;;6.50;81.39;95327.63;5075168;28;20041;-75
2021/05/05 02:35:09;;;;;;;0.32;0.30;;;;;;;6.46;81.98;95327.25;5076247;28;20036;-75
2021/05/05 02:37:36;;;;;;;0.40;0.40;;;;;;;6.51;82.29;95342.25;5076256;28;20045;-75
2021/05/05 02:40:05;;;;;;;0.68;0.40;;;;;;;6.56;82.49;95350.19;5076034;28;20052;-74
2021/05/05 02:42:32;;;;;;;0.75;0.40;;;;;;;6.60;82.55;95351.34;5075726;28;20048;-74
2021/05/05 02:44:59;;;;;;;0.55;0.28;;;;;;;6.62;82.36;95336.28;5076349;28;20033;-74
2021/05/05 02:47:26;;;;;;;0.30;0.30;;;;;;;6.64;82.59;95331.66;5075775;28;20033;-76
2021/05/05 02:49:52;;;;;;;0.70;0.55;;;;;;;6.67;82.38;95333.81;5075439;28;20476;-75
2021/05/05 02:52:18;;;;;;;0.98;0.70;;;;;;;6.73;82.39;95339.16;5075835;28;20045;-75
2021/05/05 02:54:46;;;;;;;1.73;0.40;;;;;;;6.74;82.37;95333.75;5075691;28;20469;-76
2021/05/05 02:57:12;;;;;;;0.50;0.50;;;;;;;6.75;82.10;95326.72;5075725;28;20051;-76
2021/05/05 02:59:39;;;;;;;0.40;0.40;;;;;;;6.70;81.93;95322.97;5075455;28;20048;-76
2021/05/05 03:02:05;;;;;;;0.30;0.30;;;;;;;6.70;82.15;95319.56;5075997;28;20059;-76
2021/05/05 03:04:32;;;;;;;0.43;0.43;;;;;;;6.66;81.81;95323.63;5074254;28;20049;-75
2021/05/05 03:06:58;;;;;;;0.38;0.30;;;;;;;6.60;81.73;95311.47;5075780;28;20036;-75
2021/05/05 03:09:26;;;;;;;0.82;0.40;;;;;;;6.58;82.38;95319.50;5074340;28;20037;-74
2021/05/05 03:11:57;;;;;;;0.93;0.50;;;;;;;6.59;81.98;95320.28;5075587;28;20067;-74
2021/05/05 03:14:25;;;;;;;0.45;0.30;;;;;;;6.56;82.05;95315.53;5075098;28;20111;-74
2021/05/05 03:16:53;;;;;;;1.00;0.50;;;;;;;6.54;81.93;95328.78;5074841;28;20052;-74
2021/05/05 03:19:19;;;;;;;1.27;0.40;;;;;;;6.51;81.80;95331.84;5075352;28;20466;-74
2021/05/05 03:21:46;;;;;;;0.32;0.32;;;;;;;6.49;82.08;95329.44;5075186;28;20045;-74
2021/05/05 03:24:12;;;;;;;0.57;0.57;;;;;;;6.52;82.66;95340.44;5075253;28;20051;-74
2021/05/05 03:26:39;;;;;;;1.30;0.60;;;;;;;6.54;82.51;95336.59;5075612;28;20040;-75
2021/05/05 03:29:05;;;;;;;1.42;0.60;;;;;;;6.56;82.38;95337.16;5075998;28;20404;-74
2021/05/05 03:31:33;;;;;;;0.50;0.50;;;;;;;6.61;82.57;95341.72;5075498;28;20045;-74
2021/05/05 03:34:00;;;;;;;1.27;0.80;;;;;;;6.60;82.32;95340.91;5075273;28;20033;-73
2021/05/05 03:36:26;;;;;;;1.25;0.52;;;;;;;6.60;82.65;95343.53;5074924;28;20052;-74
2021/05/05 03:38:52;;;;;;;2.95;0.85;;;;;;;6.61;82.48;95349.53;5075465;28;20043;-74
2021/05/05 03:41:18;;;;;;;1.60;0.50;;;;;;;6.62;82.42;95340.72;5073679;28;20386;-74
2021/05/05 03:43:45;;;;;;;0.50;0.50;;;;;;;6.52;82.72;95340.44;5074457;28;20051;-75
2021/05/05 03:46:11;;;;;;;0.63;0.40;;;;;;;6.50;82.84;95338.81;5074939;28;20037;-74
2021/05/05 03:48:37;;;;;;;0.60;0.50;;;;;;;6.49;82.74;95342.47;5074994;28;20051;-74
2021/05/05 03:51:04;;;;;;;1.60;0.55;;;;;;;6.40;82.60;95348.97;5073580;28;20036;-74
2021/05/05 03:53:31;;;;;;;1.85;0.60;;;;;;;6.36;82.47;95339.19;5074860;28;20036;-75
2021/05/05 03:55:57;;;;;;;0.85;0.40;;;;;;;6.34;82.56;95336.03;5074855;28;20041;-75
2021/05/05 03:58:24;;;;;;;0.88;0.40;;;;;;;6.35;82.60;95342.84;5074366;28;20056;-74
2021/05/05 04:00:50;;;;;;;0.55;0.50;;;;;;;6.33;82.42;95342.25;5075214;28;20037;-74
2021/05/05 04:03:17;;;;;;;0.57;0.30;;;;;;;6.28;82.26;95338.50;5072951;28;20040;-74
2021/05/05 04:05:43;;;;;;;0.47;0.47;;;;;;;6.24;82.23;95355.56;5073293;28;20043;-75
2021/05/05 04:08:09;;;;;;;0.73;0.50;;;;;;;6.22;82.17;95362.00;5074598;28;20392;-75
2021/05/05 04:10:35;;;;;;;0.88;0.50;;;;;;;6.17;82.09;95360.03;5074584;28;20037;-74
2021/05/05 04:13:03;;;;;;;1.67;0.50;;;;;;;6.14;82.00;95357.09;5074292;28;20044;-75
2021/05/05 04:15:30;;;;;;;0.75;0.57;;;;;;;6.13;82.31;95365.88;5074093;28;20029;-74
2021/05/05 04:17:56;;;;;;;0.60;0.60;;;;;;;6.17;82.45;95369.66;5074376;28;20047;-75
2021/05/05 04:20:23;;;;;;;0.60;0.60;;;;;;;6.14;82.54;95365.69;5074617;28;20466;-74
2021/05/05 04:22:50;;;;;;;0.65;0.40;;;;;;;6.11;82.39;95363.53;5074171;28;20032;-74
2021/05/05 04:25:17;;;;;;;0.52;0.50;;;;;;;6.10;82.48;95367.13;5074276;28;20036;-75
2021/05/05 04:27:46;;;;;;;0.30;0.30;;;;;;;6.14;82.57;95386.50;5074472;28;20037;-75
2021/05/05 04:30:17;;;;;;;0.30;0.30;;;;;;;6.10;82.42;95396.53;5074107;28;20048;-75
2021/05/05 04:32:49;;;;;;;0.38;0.38;;;;;;;6.08;82.34;95398.56;5074475;28;20468;-75
2021/05/05 04:35:16;;;;;;;0.30;0.30;;;;;;;6.08;82.23;95406.38;5073841;28;20461;-75
2021/05/05 04:37:42;;;;;;;0.28;0.25;;;;;;;6.00;81.88;95405.84;5074410;28;20032;-75
2021/05/05 04:40:09;;;;;;;0.77;0.40;;;;;;;5.96;82.21;95415.09;5073584;28;20044;-75
2021/05/05 04:42:36;;;;;;;0.32;0.20;;;;;;;5.97;82.61;95414.09;5073973;28;20041;-76
2021/05/05 04:45:07;;;;;;;0.63;0.50;;;;;;;5.95;82.22;95409.09;5073735;28;20393;-75
2021/05/05 04:47:37;;;;;;;0.35;0.35;;;;;;;5.89;82.06;95415.91;5073522;28;20044;-76
2021/05/05 04:50:05;;;;;;;0.30;0.30;;;;;;;5.87;81.94;95427.56;5064271;28;20047;-75
2021/05/05 04:52:31;;;;;;;0.30;0.20;;;;;;;5.80;81.83;95438.03;5073829;28;20404;-75
2021/05/05 04:54:58;;;;;;;0.10;0.10;;;;;;;5.79;82.29;95446.81;5073206;28;20059;-75
2021/05/05 04:57:24;;;;;;;0.20;0.20;;;;;;;5.82;82.41;95443.03;5073047;28;20048;-77
2021/05/05 04:59:50;;;;;;;0.38;0.30;;;;;;;5.79;82.02;95451.22;5073194;28;20405;-77
2021/05/05 05:02:17;;;;;;;0.20;0.20;;;;;;;5.75;82.04;95444.84;5073661;28;20059;-77
2021/05/05 05:04:44;;;;;;;0.20;0.20;;;;;;;5.70;81.77;95443.69;5073646;28;20055;-76
2021/05/05 05:07:10;;;;;;;0.28;0.28;;;;;;;5.69;82.18;95455.13;5072953;28;20044;-74
2021/05/05 05:09:36;;;;;;;2.10;0.40;;;;;;;5.70;82.01;95459.28;5073247;28;20033;-74
2021/05/05 05:12:03;;;;;;;1.02;0.50;;;;;;;5.72;82.19;95460.91;5073092;28;20408;-76
2021/05/05 05:14:29;;;;;;;1.95;0.50;;;;;;;5.71;82.41;95465.28;5073468;28;20043;-74
2021/05/05 05:16:57;;;;;;;1.83;0.57;;;;;;;5.73;82.46;95458.06;5072671;28;20036;-74
2021/05/05 05:19:24;;;;;;;0.40;0.40;;;;;;;5.78;82.50;95453.03;5073166;28;20040;-74
2021/05/05 05:21:50;;;;;;;2.00;0.47;;;;;;;5.83;82.57;95455.78;5072966;28;20036;-76
2021/05/05 05:24:16;;;;;;;1.48;0.60;;;;;;;5.85;82.34;95461.59;5072930;28;20039;-74
2021/05/05 05:26:43;;;;;;;0.38;0.30;;;;;;;5.85;82.06;95461.59;5073419;28;20048;-76
2021/05/05 05:29:09;;;;;;;0.30;0.30;;;;;;;5.80;81.74;95474.44;5073386;28;20404;-76
2021/05/05 05:31:35;;;;;;;0.30;0.30;;;;;;;5.77;81.84;95467.03;5072297;28;20047;-75
2021/05/05 05:34:02;;;;;;;0.20;0.20;;;;;;;5.77;81.81;95472.25;5072004;28;20052;-74
2021/05/05 05:36:28;;;;;;;0.38;0.38;;;;;;;5.77;81.72;95477.44;5072163;28;20039;-74
2021/05/05 05:38:55;;;;;;;3.33;0.70;;;;;;;5.77;81.21;95480.06;5073121;28;20040;-74
2021/05/05 05:41:21;;;;;;;0.98;0.60;;;;;;;5.77;81.15;95477.44;5072982;28;20043;-76
2021/05/05 05:43:47;;;;;;;1.23;0.90;;;;;;;5.75;80.73;95476.88;5072266;28;20041;-76
2021/05/05 05:46:13;;;;;;;1.38;1.00;;;;;;;5.72;80.43;95468.72;5072465;28;20400;-75
2021/05/05 05:48:40;;;;;;;1.50;0.90;;;;;;;5.68;80.33;95478.72;5072451;28;20052;-74
2021/05/05 05:51:06;;;;;;;2.97;0.90;;;;;;;5.69;80.90;95478.53;5072872;28;20480;-73
2021/05/05 05:53:33;;;;;;;1.52;0.90;;;;;;;5.69;80.42;95480.31;5073309;28;20059;-73
2021/05/05 05:55:59;;;;;;;5.28;1.10;;;;;;;5.74;80.58;95479.69;5072808;28;20036;-73
2021/05/05 05:58:26;;;;;;;2.13;0.95;;;;;;;5.73;80.26;95489.28;5072789;28;20409;-74
2021/05/05 06:00:52;;;;;;;2.13;1.05;;;;;;;5.75;80.56;95494.28;5073595;28;20045;-74
2021/05/05 06:03:18;;;;;;;2.38;0.90;;;;;;;5.77;80.46;95498.25;5058943;28;20037;-74
2021/05/05 06:05:44;;;;;;;1.98;0.82;;;;;;;5.80;80.79;95499.66;5073168;28;20047;-75
2021/05/05 06:08:11;;;;;;;1.17;0.70;;;;;;;5.85;80.27;95507.63;5072955;28;20043;-74
2021/05/05 06:10:37;;;;;;;1.52;0.80;;;;;;;5.95;80.84;95512.41;5072741;28;20037;-75
2021/05/05 06:13:04;;;;;;;1.00;0.90;;;;;;;6.09;80.92;95513.91;5072631;28;20051;-74
2021/05/05 06:15:30;;;;;;;1.63;0.85;;;;;;;6.52;81.49;95520.94;5072540;28;20036;-74
2021/05/05 06:17:57;;;;;;;1.13;0.60;;;;;;;7.28;81.34;95516.31;5072955;28;20044;-74
2021/05/05 06:20:23;;;;;;;0.80;0.70;;;;;;;7.62;79.58;95514.06;5072464;28;20052;-74
2021/05/05 06:22:51;;;;;;;2.58;0.93;;;;;;;7.63;78.15;95523.50;5072470;28;20504;-74
2021/05/05 06:25:17;;;;;;;2.03;0.88;;;;;;;7.58;77.71;95516.34;5072476;28;20060;-74
2021/05/05 06:27:44;;;;;;;1.58;0.80;;;;;;;7.68;77.73;95521.00;5074556;28;20401;-74
2021/05/05 06:30:11;;;;;;;0.95;0.80;;;;;;;7.91;77.43;95522.88;5076640;28;20066;-74
2021/05/05 06:32:38;;;;;;;2.00;0.80;;;;;;;8.49;77.40;95524.03;5076654;28;20044;-74
2021/05/05 06:35:06;;;;;;;0.70;0.70;;;;;;;8.80;76.09;95530.72;5076021;28;20404;-74
2021/05/05 06:37:32;;;;;;;1.10;0.88;;;;;;;9.03;75.31;95526.47;5076601;28;20477;-75
2021/05/05 06:40:00;;;;;;;1.20;0.82;;;;;;;9.38;74.11;95529.00;5076404;28;20389;-74
2021/05/05 06:42:28;;;;;;;1.27;0.70;;;;;;;9.72;74.10;95529.09;5075995;28;20033;-74
2021/05/05 06:44:54;;;;;;;0.68;0.68;;;;;;;9.79;72.59;95539.44;5076364;28;20419;-74
2021/05/05 06:47:20;;;;;;;0.80;0.77;;;;;;;10.04;72.84;95534.66;5075900;28;20055;-74
2021/05/05 06:49:47;;;;;;;1.17;1.05;;;;;;;10.60;72.31;95550.47;5076474;28;20481;-75
2021/05/05 06:52:13;;;;;;;2.55;1.27;;;;;;;11.34;71.63;95549.38;5075756;28;20043;-75
2021/05/05 06:54:40;;;;;;;2.10;1.08;;;;;;;11.62;69.17;95551.00;5076825;28;20029;-75
2021/05/05 06:57:07;;;;;;;1.67;1.00;;;;;;;11.37;67.85;95547.03;5075592;28;20036;-75
2021/05/05 06:59:34;;;;;;;3.10;1.25;;;;;;;10.74;66.25;95559.59;5075914;28;20048;-75
2021/05/05 07:02:01;;;;;;;1.60;1.17;;;;;;;10.33;67.38;95566.03;5075784;28;20485;-75
2021/05/05 07:04:27;;;;;;;2.08;1.00;;;;;;;9.91;66.81;95563.72;5075386;28;20039;-75
2021/05/05 07:06:54;;;;;;;5.10;1.60;;;;;;;10.09;67.68;95571.38;5075633;28;20039;-75
2021/05/05 07:09:21;;;;;;;2.08;1.20;;;;;;;10.16;66.90;95574.66;5057808;28;20032;-75
2021/05/05 07:11:48;;;;;;;1.63;1.20;;;;;;;9.95;66.38;95576.13;5075454;28;20063;-75
2021/05/05 07:14:14;;;;;;;2.13;1.20;;;;;;;9.79;66.08;95582.13;5075688;28;20471;-75
2021/05/05 07:16:40;;;;;;;2.35;1.38;;;;;;;10.09;66.45;95576.63;5075202;28;20032;-75
2021/05/05 07:19:07;;;;;;;2.28;1.00;;;;;;;10.41;65.70;95581.38;5074144;28;20470;-75
2021/05/05 07:21:33;;;;;;;1.30;1.20;;;;;;;10.27;64.41;95588.72;5075628;28;20048;-76
2021/05/05 07:24:00;;;;;;;3.35;1.48;;;;;;;10.01;64.22;95582.25;5074096;28;20032;-75
2021/05/05 07:26:27;;;;;;;2.67;1.45;;;;;;;9.87;64.16;95589.63;5074421;28;20041;-76
2021/05/05 07:28:55;;;;;;;2.60;1.40;;;;;;;9.78;63.79;95593.63;5075258;28;20051;-76
2021/05/05 07:31:23;;;;;;;2.65;1.30;;;;;;;9.58;63.55;95601.09;5075288;28;20052;-77
2021/05/05 07:33:51;;;;;;;2.65;1.02;;;;;;;9.34;63.46;95604.56;5075300;28;20485;-76
2021/05/05 07:36:21;;;;;;;5.97;1.10;;;;;;;9.10;63.37;95600.38;5075057;28;20073;-76
2021/05/05 07:47:06;;;;;;;3.50;1.33;;;;;;;8.35;62.99;95620.06;5075322;28;20055;-76
2021/05/05 07:49:41;;;;;;;2.30;1.10;;;;;;;8.21;62.83;95616.03;5075634;28;20048;-77
2021/05/05 07:52:08;;;;;;;2.35;1.45;;;;;;;8.06;62.65;95622.50;5074890;28;20047;-77
2021/05/05 07:54:35;;;;;;;2.35;1.20;;;;;;;7.92;62.00;95627.09;5074465;28;20461;-77
2021/05/05 07:57:02;;;;;;;2.08;1.13;;;;;;;8.00;62.49;95623.38;5074130;28;20036;-77
2021/05/05 07:59:28;;;;;;;2.08;1.08;;;;;;;7.95;62.05;95604.16;5074927;28;20052;-78
2021/05/05 08:01:55;;;;;;;1.90;1.38;;;;;;;8.12;61.78;95611.13;5073100;28;20060;-77
2021/05/05 08:04:21;;;;;;;1.75;1.00;;;;;;;8.60;61.25;95603.44;5074878;28;20040;-78
2021/05/05 08:06:47;;;;;;;1.98;1.02;;;;;;;8.67;60.55;95596.28;5073283;28;20037;-78
2021/05/05 08:09:14;;;;;;;2.55;1.10;;;;;;;8.52;59.89;95596.72;5073728;28;20040;-78
2021/05/05 08:11:40;;;;;;;2.35;1.23;;;;;;;8.33;60.09;95595.97;5074668;28;20503;-78
2021/05/05 08:14:07;;;;;;;1.60;1.00;;;;;;;8.20;60.17;95589.13;5075167;28;20048;-77
2021/05/05 08:16:33;;;;;;;3.30;1.23;;;;;;;8.15;60.33;95599.47;5072667;28;20071;-78
2021/05/05 08:18:59;;;;;;;1.58;1.10;;;;;;;8.04;59.99;95603.63;5073543;28;20040;-78
2021/05/05 08:21:27;;;;;;;1.90;1.05;;;;;;;7.94;60.14;95603.38;5074190;28;20396;-78
2021/05/05 08:23:54;;;;;;;2.17;1.10;;;;;;;7.83;60.18;95607.53;5056958;28;20041;-78
2021/05/05 08:26:21;;;;;;;1.15;0.90;;;;;;;7.71;60.25;95623.13;5073171;28;20036;-78
2021/05/05 08:28:47;;;;;;;3.40;0.90;;;;;;;7.47;60.14;95624.03;5039748;28;20378;-78
2021/05/05 08:31:14;;;;;;;1.85;1.23;;;;;;;7.28;60.68;95641.47;5072621;28;20063;-78
2021/05/05 08:33:41;;;;;;;2.33;1.08;;;;;;;7.14;61.13;95648.66;5074108;28;20041;-78
2021/05/05 08:36:07;;;;;;;2.45;1.10;;;;;;;7.07;61.71;95653.91;5074228;28;20465;-79
2021/05/05 08:38:33;;;;;;;2.20;1.00;;;;;;;7.05;61.66;95650.72;5074974;28;20040;-78
2021/05/05 08:41:00;;;;;;;2.42;1.17;;;;;;;6.97;61.75;95647.59;5073558;28;20036;-78
2021/05/05 08:43:26;;;;;;;4.35;1.38;;;;;;;6.92;61.72;95640.41;5056206;28;20040;-78
2021/05/05 08:45:58;;;;;;;3.80;1.52;;;;;;;7.21;63.40;95645.97;5074989;28;20048;-79
2021/05/05 08:48:25;;;;;;;3.00;1.17;;;;;;;7.48;62.34;95641.28;5062541;28;20056;-78
2021/05/05 08:50:52;;;;;;;4.82;1.50;;;;;;;7.63;62.08;95639.09;5056253;28;20051;-78
2021/05/05 08:53:18;;;;;;;1.85;0.98;;;;;;;7.81;61.94;95640.91;5073281;28;20385;-79
2021/05/05 08:55:45;;;;;;;2.42;1.20;;;;;;;7.93;61.58;95640.94;5039933;28;20044;-79
2021/05/05 08:58:12;;;;;;;1.45;1.13;;;;;;;8.04;61.11;95634.16;5072176;28;20044;-79
2021/05/05 09:00:39;;;;;;;1.27;1.10;;;;;;;8.12;61.21;95647.69;5074393;28;20053;-79
2021/05/05 09:03:07;;;;;;;2.25;1.30;;;;;;;8.11;60.82;95634.88;5074102;28;20453;-79
2021/05/05 09:05:57;;;;;;;2.45;1.30;;;;;;;7.97;57.35;95609.97;5056742;28;20047;-78
2021/05/05 09:08:25;;;;;;;2.22;1.20;;;;;;;8.09;60.00;95645.53;5074346;28;20043;-79
2021/05/05 09:11:02;;;;;;;2.60;1.00;;;;;;;8.64;58.42;95633.34;5073764;28;20056;-79
2021/05/05 09:13:52;;;;;;;1.63;0.98;;;;;;;9.29;55.10;95595.81;5073983;28;20385;-79
2021/05/05 09:16:21;;;;;;;1.23;0.80;;;;;;;9.59;57.47;95611.31;5059233;28;20489;-75
2021/05/05 09:19:05;;;;;;;1.25;1.00;;;;;;;10.10;56.20;95606.22;5073980;28;20056;-78
2021/05/05 09:21:39;;;;;;;1.27;0.98;;;;;;;10.36;55.92;95608.28;5056938;28;20028;-79
2021/05/05 09:24:20;;;;;;;1.02;0.80;;;;;;;10.63;51.49;95567.56;5073418;28;20039;-78
2021/05/05 09:26:52;;;;;;;2.05;1.30;;;;;;;10.93;50.48;95564.59;5073735;28;20036;-78
2021/05/05 09:29:21;;;;;;;1.80;0.95;;;;;;;10.84;53.40;95579.16;5071688;28;20051;-78
2021/05/05 09:31:48;;;;;;;1.40;1.30;;;;;;;10.94;53.44;95584.53;5072919;28;20056;-79
2021/05/05 09:34:15;;;;;;;4.25;1.00;;;;;;;11.29;52.86;95573.72;5074274;28;20037;-79
2021/05/05 09:36:59;;;;;;;1.70;0.70;;;;;;;11.37;46.31;95531.28;5072187;28;20062;-79
2021/05/05 09:39:28;;;;;;;3.10;0.97;;;;;;;11.37;50.27;95570.66;5072063;28;20033;-80
2021/05/05 09:41:54;;;;;;;2.03;0.90;;;;;;;11.36;49.80;95612.94;5073186;28;20025;-80
2021/05/05 09:44:21;;;;;;;2.15;1.20;;;;;;;11.10;49.20;95636.19;5071835;28;20037;-79
2021/05/05 09:46:51;;;;;;;2.65;1.08;;;;;;;11.04;49.13;95618.78;5056192;28;20036;-79
2021/05/05 09:49:35;;;;;;;3.53;1.27;;;;;;;11.13;45.38;95598.97;5072342;28;20040;-79
2021/05/05 09:52:12;;;;;;;1.80;1.30;;;;;;;11.50;47.58;95618.59;5072997;28;20036;-79
2021/05/05 09:54:51;;;;;;;1.60;0.85;;;;;;;11.80;47.34;95618.19;5074402;28;20271;-79
2021/05/05 09:57:31;;;;;;;2.03;1.15;;;;;;;12.11;44.55;95636.91;5072767;28;20039;-79
2021/05/05 10:00:11;;;;;;;4.05;1.20;;;;;;;12.30;42.74;95640.78;5072088;28;20056;-79
2021/05/05 10:02:46;;;;;;;2.30;1.00;;;;;;;12.46;39.48;95638.31;5074940;28;20055;-79
2021/05/05 10:05:29;;;;;;;1.00;0.90;;;;;;;12.60;43.48;95655.28;5077522;28;20047;-79
2021/05/05 10:08:04;;;;;;;2.70;1.00;;;;;;;12.80;39.30;95629.13;5076833;28;20036;-79
2021/05/05 10:10:42;;;;;;;1.23;0.80;;;;;;;12.83;42.88;95645.44;5076746;28;20036;-79
2021/05/05 10:13:11;;;;;;;1.65;1.10;;;;;;;12.85;42.57;95651.25;5078023;28;20036;-79
2021/05/05 10:15:39;;;;;;;1.42;0.73;;;;;;;12.69;42.40;95643.25;5077813;28;20099;-80
2021/05/05 10:18:11;;;;;;;1.48;1.10;;;;;;;12.87;41.09;95633.38;5042656;28;20386;-79
2021/05/05 10:20:43;;;;;;;1.38;0.93;;;;;;;13.25;37.72;95613.09;5077272;28;20036;-79
2021/05/05 10:23:10;;;;;;;1.17;1.13;;;;;;;13.29;41.19;95630.81;5076773;28;20477;-79
2021/05/05 10:25:41;;;;;;;1.33;1.00;;;;;;;13.17;40.62;95641.50;5076115;28;20044;-80
2021/05/05 10:28:07;;;;;;;1.55;0.90;;;;;;;12.73;39.91;95646.19;5060254;28;20469;-78
2021/05/05 10:30:35;;;;;;;1.23;1.13;;;;;;;12.57;40.18;95645.25;5075898;28;20064;-78
2021/05/05 10:33:02;;;;;;;1.63;0.90;;;;;;;12.57;40.29;95658.41;5076956;28;20052;-78
2021/05/05 10:35:28;;;;;;;1.08;0.90;;;;;;;12.74;39.90;95660.91;5058910;28;20045;-79
2021/05/05 10:38:00;;;;;;;1.42;0.70;;;;;;;13.04;39.21;95654.28;5042745;28;20045;-79
2021/05/05 10:40:33;;;;;;;1.38;0.80;;;;;;;13.32;37.27;95643.47;5076368;28;20044;-80
2021/05/05 10:43:03;;;;;;;1.42;0.68;;;;;;;13.11;37.98;95676.72;5067530;28;20036;-79
2021/05/05 10:45:36;;;;;;;1.55;0.80;;;;;;;12.59;37.19;95670.25;5058292;28;20044;-80
2021/05/05 10:48:13;;;;;;;1.05;0.88;;;;;;;12.13;37.40;95685.56;5075053;28;20028;-80
2021/05/05 10:50:51;;;;;;;2.08;0.80;;;;;;;11.80;37.23;95694.38;5074364;28;20047;-79
2021/05/05 10:53:19;;;;;;;2.65;1.00;;;;;;;11.54;38.90;95716.84;5074190;28;20477;-79
2021/05/05 10:56:22;;;;;;;2.17;0.80;;;;;;;11.15;38.24;95725.50;5075638;28;20044;-79
2021/05/05 10:59:07;;;;;;;2.03;0.90;;;;;;;10.77;39.73;95745.34;5074628;28;20092;-79
2021/05/05 11:01:40;;;;;;;1.48;0.70;;;;;;;10.25;43.67;95770.81;5075309;28;20043;-79
2021/05/05 11:04:14;;;;;;;1.43;1.10;;;;;;;9.66;44.50;95795.25;5074564;28;20390;-80
2021/05/05 11:06:49;;;;;;;1.10;0.67;;;;;;;9.13;49.52;95814.38;5076109;28;20033;-79
2021/05/05 11:09:19;;;;;;;0.70;0.70;;;;;;;8.67;47.23;95808.00;5076355;28;20040;-79
2021/05/05 11:11:50;;;;;;;0.90;0.50;;;;;;;8.02;50.09;95839.84;5074514;28;20391;-77
2021/05/05 11:14:22;;;;;;;1.55;0.70;;;;;;;7.49;58.16;95873.22;5074863;28;20032;-76
2021/05/05 11:16:52;;;;;;;0.70;0.70;;;;;;;7.18;54.97;95862.81;5075656;28;20025;-75
2021/05/05 11:19:40;;;;;;;0.82;0.50;;;;;;;6.88;63.42;95905.09;5075426;28;20033;-75
2021/05/05 11:22:19;;;;;;;0.68;0.68;;;;;;;6.82;62.16;95867.63;5063678;28;20033;-75
2021/05/05 11:24:46;;;;;;;0.55;0.52;;;;;;;6.69;54.76;95808.56;5075149;28;20032;-75
2021/05/05 11:27:15;;;;;;;0.85;0.70;;;;;;;6.74;55.66;95797.53;5075122;28;20392;-75
2021/05/05 11:29:44;;;;;;;1.25;0.57;;;;;;;6.79;57.07;95820.34;5075519;28;20041;-76
2021/05/05 11:32:16;;;;;;;0.60;0.60;;;;;;;6.78;60.04;95856.00;5075703;28;20052;-76
2021/05/05 11:34:45;;;;;;;0.95;0.70;;;;;;;6.74;58.12;95854.03;5075468;28;20037;-76
2021/05/05 11:37:21;;;;;;;0.68;0.60;;;;;;;6.66;58.68;95842.06;5073886;28;20044;-76
2021/05/05 11:39:49;;;;;;;0.77;0.70;;;;;;;6.58;59.54;95855.31;5075018;28;20044;-76
2021/05/05 11:42:23;;;;;;;0.75;0.60;;;;;;;6.50;58.91;95822.47;5073755;28;20404;-77
2021/05/05 11:44:57;;;;;;;1.05;0.82;;;;;;;6.65;61.44;95824.81;5075457;28;20033;-76
2021/05/05 11:47:26;;;;;;;0.52;0.52;;;;;;;7.09;60.16;95830.97;5074929;28;20028;-76
2021/05/05 11:49:54;;;;;;;0.70;0.70;;;;;;;7.64;59.66;95823.34;5074766;28;20068;-76
2021/05/05 11:52:32;;;;;;;0.77;0.60;;;;;;;8.13;64.21;95852.22;5072819;28;20053;-76